Time;durP1;ratioP1;P1;durP2;ratioP2;P2;SDS_P1;SDS_P2;PMS_P1;PMS_P2;Temp;Humidity;BMP_temperature;BMP_pressure;BME280_temperature;BME280_humidity;BME280_pressure;Samples;Min_cycle;Max_cycle;Signal;HPM_P1;HPM_P2
2023/07/22 00:00:46;;;;;;;4.45;3.22;;;15.60;99.90;;;;;;5040665;28;20080;-77
2023/07/22 00:03:31;;;;;;;5.68;3.83;;;15.40;99.90;;;;;;5009485;28;20492;-77
2023/07/22 00:06:17;;;;;;;8.00;4.63;;;15.40;99.90;;;;;;5021279;28;20080;-76
2023/07/22 00:09:04;;;;;;;6.35;4.15;;;15.40;99.90;;;;;;5020650;28;20068;-76
2023/07/22 00:11:50;;;;;;;5.90;4.05;;;15.40;99.90;;;;;;4988741;28;20037;-77
2023/07/22 00:14:40;;;;;;;6.65;4.50;;;15.40;99.90;;;;;;5026827;28;20067;-76
2023/07/22 00:17:26;;;;;;;6.38;4.22;;;15.20;99.90;;;;;;5006467;28;20051;-77
2023/07/22 00:20:13;;;;;;;8.00;4.45;;;15.10;99.90;;;;;;5026545;28;20138;-77
2023/07/22 00:22:59;;;;;;;7.03;4.47;;;15.10;99.90;;;;;;4993282;28;20045;-77
2023/07/22 00:25:46;;;;;;;6.35;4.45;;;15.10;99.90;;;;;;5016104;28;20276;-77
2023/07/22 00:28:32;;;;;;;6.95;4.60;;;15.10;99.90;;;;;;5025980;28;20072;-78
2023/07/22 00:31:18;;;;;;;7.75;4.43;;;15.10;99.90;;;;;;4979424;28;20048;-77
2023/07/22 00:34:04;;;;;;;6.20;5.05;;;15.00;99.90;;;;;;5006808;28;20042;-77
2023/07/22 00:36:50;;;;;;;7.18;5.38;;;15.00;99.90;;;;;;5012002;28;20129;-77
2023/07/22 00:39:36;;;;;;;7.30;4.97;;;15.00;99.90;;;;;;5026015;28;20056;-77
2023/07/22 00:42:22;;;;;;;10.18;5.70;;;14.90;99.90;;;;;;5018776;28;20343;-77
2023/07/22 00:45:09;;;;;;;9.60;5.72;;;14.90;99.90;;;;;;5008274;28;20052;-77
2023/07/22 00:47:55;;;;;;;8.27;5.38;;;14.80;99.90;;;;;;4989418;28;20041;-77
2023/07/22 00:50:40;;;;;;;9.02;6.43;;;14.70;99.90;;;;;;5027165;28;20106;-77
2023/07/22 00:53:26;;;;;;;9.23;5.90;;;14.70;99.90;;;;;;5017974;28;20056;-77
2023/07/22 00:56:12;;;;;;;7.47;5.82;;;14.70;99.90;;;;;;5004026;28;20053;-77
2023/07/22 00:58:58;;;;;;;10.07;5.82;;;14.60;99.90;;;;;;5022395;28;20060;-77
2023/07/22 01:01:45;;;;;;;11.98;6.10;;;14.60;99.90;;;;;;5009975;28;20033;-77
2023/07/22 01:04:33;;;;;;;11.60;7.00;;;14.60;99.90;;;;;;5031622;28;20509;-77
2023/07/22 01:07:19;;;;;;;11.60;6.25;;;14.60;99.90;;;;;;5023567;28;20048;-77
2023/07/22 01:10:06;;;;;;;11.52;6.72;;;14.50;99.90;;;;;;5006177;28;20099;-77
2023/07/22 01:12:51;;;;;;;13.82;7.20;;;14.60;99.90;;;;;;4997981;28;20112;-77
2023/07/22 01:15:37;;;;;;;9.60;6.75;;;14.40;99.90;;;;;;4997716;28;20350;-77
2023/07/22 01:18:23;;;;;;;13.05;6.97;;;14.40;99.90;;;;;;4963384;28;20437;-77
2023/07/22 01:21:09;;;;;;;10.77;6.82;;;14.40;99.90;;;;;;5002325;28;20045;-77
2023/07/22 01:23:57;;;;;;;12.80;7.78;;;14.40;99.90;;;;;;4979683;28;20129;-77
2023/07/22 01:26:43;;;;;;;9.47;7.17;;;14.50;99.90;;;;;;5001897;28;20042;-77
2023/07/22 01:29:29;;;;;;;10.23;7.47;;;14.50;99.90;;;;;;4965250;28;20050;-77
2023/07/22 01:32:15;;;;;;;12.35;7.65;;;14.40;99.90;;;;;;4980794;28;20037;-77
2023/07/22 01:35:01;;;;;;;11.25;7.20;;;14.50;99.90;;;;;;4997345;28;20447;-78
2023/07/22 01:37:47;;;;;;;10.45;6.72;;;14.50;99.90;;;;;;4978627;28;20096;-78
2023/07/22 01:40:33;;;;;;;12.88;7.32;;;14.50;99.90;;;;;;5023522;28;20038;-78
2023/07/22 01:43:19;;;;;;;13.32;7.45;;;14.40;99.90;;;;;;5002586;28;20070;-78
2023/07/22 01:46:04;;;;;;;11.63;7.65;;;14.40;99.90;;;;;;4962722;28;20074;-78
2023/07/22 01:48:51;;;;;;;10.95;7.53;;;14.40;99.90;;;;;;4960326;28;20046;-78
2023/07/22 01:51:43;;;;;;;11.88;8.05;;;14.30;99.90;;;;;;4986094;28;20046;-78
2023/07/22 01:54:29;;;;;;;13.48;7.70;;;14.30;99.90;;;;;;4963425;28;20149;-77
2023/07/22 01:57:15;;;;;;;10.43;7.88;;;14.40;99.90;;;;;;4991324;28;20461;-78
2023/07/22 02:00:01;;;;;;;13.38;8.07;;;14.40;99.90;;;;;;4985568;28;20053;-78
2023/07/22 02:02:47;;;;;;;10.98;7.28;;;14.40;99.90;;;;;;5005277;28;20065;-78
2023/07/22 02:05:33;;;;;;;17.00;8.25;;;14.40;99.90;;;;;;4973649;28;20055;-78
2023/07/22 02:08:18;;;;;;;14.50;8.45;;;14.20;99.90;;;;;;4958542;28;20047;-78
2023/07/22 02:11:06;;;;;;;16.90;9.43;;;14.20;99.90;;;;;;4995381;28;20043;-78
2023/07/22 02:13:52;;;;;;;10.90;8.20;;;14.10;99.90;;;;;;4973150;28;20447;-77
2023/07/22 02:16:38;;;;;;;15.00;9.10;;;14.20;99.90;;;;;;4978072;28;20043;-78
2023/07/22 02:19:24;;;;;;;16.05;8.25;;;14.20;99.90;;;;;;4962252;28;20542;-77
2023/07/22 02:22:10;;;;;;;13.13;8.40;;;14.20;99.90;;;;;;4973488;28;20113;-78
2023/07/22 02:24:56;;;;;;;17.77;9.43;;;14.20;99.90;;;;;;4995727;28;20097;-77
2023/07/22 02:27:44;;;;;;;13.05;9.05;;;14.10;99.90;;;;;;4996165;28;20042;-78
2023/07/22 02:30:37;;;;;;;15.15;9.20;;;14.10;99.90;;;;;;4972212;28;20072;-78
2023/07/22 02:33:23;;;;;;;13.43;9.48;;;14.10;99.90;;;;;;4984570;28;20537;-74
2023/07/22 02:36:09;;;;;;;14.90;9.25;;;14.10;99.90;;;;;;4985831;28;20366;-72
2023/07/22 02:38:55;;;;;;;13.30;8.60;;;14.10;99.90;;;;;;4979955;28;20061;-74
2023/07/22 02:41:41;;;;;;;12.88;8.65;;;14.20;99.90;;;;;;4990060;28;20368;-77
2023/07/22 02:44:27;;;;;;;17.10;9.32;;;14.20;99.90;;;;;;4969141;28;20482;-78
2023/07/22 02:47:14;;;;;;;14.90;8.95;;;14.20;99.90;;;;;;4976085;28;20074;-78
2023/07/22 02:50:00;;;;;;;15.85;8.90;;;14.20;99.90;;;;;;4980853;28;20116;-78
2023/07/22 02:52:46;;;;;;;16.25;8.50;;;14.20;99.90;;;;;;5000524;28;20073;-78
2023/07/22 02:55:34;;;;;;;15.13;8.55;;;14.20;99.90;;;;;;4978634;28;20101;-78
2023/07/22 02:58:20;;;;;;;14.57;8.10;;;14.10;99.90;;;;;;4993062;28;20542;-78
2023/07/22 03:01:08;;;;;;;15.25;8.93;;;14.10;99.90;;;;;;4968481;28;20038;-78
2023/07/22 03:03:54;;;;;;;13.55;8.45;;;14.20;99.90;;;;;;4996472;28;20443;-78
2023/07/22 03:06:42;;;;;;;11.38;7.57;;;14.10;99.90;;;;;;4963835;28;20035;-78
2023/07/22 03:09:28;;;;;;;12.48;7.95;;;14.10;99.90;;;;;;4953525;28;20102;-78
2023/07/22 03:12:14;;;;;;;10.88;7.55;;;14.10;99.90;;;;;;4972653;28;20054;-78
2023/07/22 03:15:00;;;;;;;15.95;9.52;;;14.00;99.90;;;;;;5019629;28;20033;-78
2023/07/22 03:17:46;;;;;;;12.23;8.38;;;14.00;99.90;;;;;;5004378;28;20041;-78
2023/07/22 03:20:32;;;;;;;12.52;8.45;;;13.90;99.90;;;;;;5014551;28;20041;-78
2023/07/22 03:23:19;;;;;;;13.60;7.82;;;14.10;99.90;;;;;;5043453;28;20040;-78
2023/07/22 03:26:05;;;;;;;13.25;8.68;;;14.10;99.90;;;;;;5019678;28;20061;-78
2023/07/22 03:28:51;;;;;;;13.13;7.72;;;14.00;99.90;;;;;;5002875;28;20081;-78
2023/07/22 03:31:37;;;;;;;14.93;7.88;;;14.00;99.90;;;;;;5002620;28;20414;-78
2023/07/22 03:34:23;;;;;;;12.10;7.90;;;14.00;99.90;;;;;;5012635;28;20180;-78
2023/07/22 03:37:09;;;;;;;16.25;8.18;;;14.00;99.90;;;;;;5016596;28;20132;-78
2023/07/22 03:39:55;;;;;;;13.90;7.45;;;13.90;99.90;;;;;;5003133;28;20041;-78
2023/07/22 03:42:41;;;;;;;11.55;7.10;;;14.00;99.90;;;;;;5015484;28;20041;-78
2023/07/22 03:45:29;;;;;;;13.60;7.28;;;13.90;99.90;;;;;;5002493;28;20081;-78
2023/07/22 03:48:15;;;;;;;14.03;7.57;;;13.90;99.90;;;;;;5000478;28;20041;-77
2023/07/22 03:51:01;;;;;;;11.65;6.93;;;13.90;99.90;;;;;;5001941;28;20047;-78
2023/07/22 03:53:49;;;;;;;10.85;7.30;;;14.10;99.90;;;;;;5005914;28;20445;-78
2023/07/22 03:56:35;;;;;;;;;;;14.10;99.90;;;;;;5023348;28;20052;-78
2023/07/22 03:59:21;;;;;;;11.27;6.55;;;14.10;99.90;;;;;;5035953;28;20625;-77
2023/07/22 04:02:07;;;;;;;12.98;7.15;;;14.10;99.90;;;;;;5021511;28;20047;-77
2023/07/22 04:04:54;;;;;;;10.18;5.80;;;14.10;99.90;;;;;;5003353;28;20070;-78
2023/07/22 04:07:40;;;;;;;12.38;6.88;;;14.20;99.90;;;;;;5001792;28;20048;-78
2023/07/22 04:10:26;;;;;;;12.48;7.30;;;14.20;99.90;;;;;;5003025;28;20377;-78
2023/07/22 04:13:12;;;;;;;13.40;7.10;;;14.20;99.90;;;;;;5015354;28;20054;-78
2023/07/22 04:15:59;;;;;;;14.13;7.03;;;14.20;99.90;;;;;;5000238;28;20129;-78
2023/07/22 04:18:48;;;;;;;13.40;6.73;;;14.10;99.90;;;;;;5000480;28;20053;-78
2023/07/22 04:21:34;;;;;;;13.15;6.97;;;14.10;99.90;;;;;;4988416;28;20354;-78
2023/07/22 04:24:20;;;;;;;11.85;6.65;;;14.10;99.90;;;;;;5000005;28;20061;-78
2023/07/22 04:27:06;;;;;;;12.90;6.82;;;14.10;99.90;;;;;;5006028;28;20053;-78
2023/07/22 04:29:53;;;;;;;13.15;6.43;;;14.10;99.90;;;;;;5018823;28;20102;-78
2023/07/22 04:32:39;;;;;;;10.82;6.25;;;14.10;99.90;;;;;;5007376;28;20049;-78
2023/07/22 04:35:25;;;;;;;11.27;6.78;;;14.20;99.90;;;;;;5018084;28;20033;-78
2023/07/22 04:38:12;;;;;;;12.73;6.07;;;14.20;99.90;;;;;;4993713;28;20079;-78
2023/07/22 04:41:01;;;;;;;13.02;6.75;;;14.20;99.90;;;;;;4974764;28;20056;-78
2023/07/22 04:43:47;;;;;;;11.80;6.65;;;14.30;99.90;;;;;;5013199;28;20485;-78
2023/07/22 04:46:35;;;;;;;13.60;6.78;;;14.20;99.90;;;;;;5028219;28;20040;-78
2023/07/22 04:49:22;;;;;;;9.45;6.60;;;14.30;99.90;;;;;;5007733;28;20089;-78
2023/07/22 04:52:08;;;;;;;12.23;6.68;;;14.30;99.90;;;;;;5033645;28;20132;-78
2023/07/22 04:54:54;;;;;;;9.65;6.22;;;14.30;99.90;;;;;;4987664;28;20107;-78
2023/07/22 04:57:44;;;;;;;12.60;5.85;;;14.30;99.90;;;;;;5000772;28;20044;-78
2023/07/22 05:00:31;;;;;;;10.48;5.82;;;14.30;99.90;;;;;;5001373;28;20046;-78
2023/07/22 05:03:18;;;;;;;13.02;6.53;;;14.40;99.90;;;;;;5000881;28;20049;-78
2023/07/22 05:06:04;;;;;;;10.50;6.50;;;14.40;99.90;;;;;;5000029;28;20049;-78
2023/07/22 05:08:50;;;;;;;11.52;6.28;;;14.50;99.90;;;;;;5013793;28;20045;-77
2023/07/22 05:11:36;;;;;;;11.57;6.55;;;14.50;99.90;;;;;;5014051;28;20048;-78
2023/07/22 05:14:24;;;;;;;10.77;6.57;;;14.50;99.90;;;;;;5021281;28;20142;-78
2023/07/22 05:17:11;;;;;;;18.03;7.17;;;14.40;99.90;;;;;;5029723;28;20037;-78
2023/07/22 05:19:58;;;;;;;11.65;6.78;;;14.40;99.90;;;;;;5027059;28;20041;-78
2023/07/22 05:22:43;;;;;;;12.25;7.00;;;14.50;99.90;;;;;;4993594;28;20073;-78
2023/07/22 05:25:29;;;;;;;9.25;5.75;;;14.60;99.90;;;;;;5016486;28;20497;-78
2023/07/22 05:28:15;;;;;;;10.25;6.53;;;14.60;99.90;;;;;;5007887;28;20804;-78
2023/07/22 05:31:01;;;;;;;11.35;6.50;;;14.60;99.90;;;;;;5025463;28;20499;-77
2023/07/22 05:33:48;;;;;;;10.13;6.47;;;14.60;99.90;;;;;;4995980;28;20073;-78
2023/07/22 05:36:34;;;;;;;10.32;6.00;;;14.60;99.90;;;;;;5006563;28;20045;-78
2023/07/22 05:39:20;;;;;;;12.95;6.47;;;14.60;99.90;;;;;;5020126;28;20049;-77
2023/07/22 05:42:07;;;;;;;12.13;5.93;;;14.60;99.90;;;;;;5006282;28;20037;-77
2023/07/22 05:44:54;;;;;;;9.90;5.87;;;14.70;99.90;;;;;;5018463;28;20137;-78
2023/07/22 05:47:41;;;;;;;11.30;6.22;;;14.80;99.90;;;;;;5007124;28;20500;-77
2023/07/22 05:50:27;;;;;;;12.63;7.10;;;14.80;99.90;;;;;;5015879;28;20357;-78
2023/07/22 05:53:13;;;;;;;11.35;6.07;;;14.80;99.90;;;;;;5006484;28;20045;-78
2023/07/22 05:55:59;;;;;;;14.48;6.45;;;14.80;99.90;;;;;;5025331;28;20040;-77
2023/07/22 05:58:45;;;;;;;12.20;6.22;;;14.80;99.90;;;;;;5013038;28;20450;-78
2023/07/22 06:01:31;;;;;;;12.40;6.32;;;14.90;99.90;;;;;;5036409;28;20037;-77
2023/07/22 06:04:18;;;;;;;11.93;6.28;;;14.90;99.90;;;;;;5016205;28;20175;-77
2023/07/22 06:07:04;;;;;;;11.15;6.22;;;15.00;99.90;;;;;;4996775;28;20037;-77
2023/07/22 06:09:50;;;;;;;11.30;6.55;;;15.00;99.90;;;;;;5027165;28;20123;-77
2023/07/22 06:12:36;;;;;;;11.13;6.57;;;15.10;99.90;;;;;;4997868;28;20437;-77
2023/07/22 06:15:24;;;;;;;11.40;6.75;;;15.10;99.90;;;;;;5000574;28;20038;-77
2023/07/22 06:18:21;;;;;;;12.77;6.10;;;15.20;99.90;;;;;;4986606;28;20362;-77
2023/07/22 06:21:25;;;;;;;14.15;6.63;;;15.20;99.90;;;;;;5001368;28;20370;-77
2023/07/22 06:24:43;;;;;;;11.98;6.25;;;15.20;99.90;;;;;;4991576;28;20030;-78
2023/07/22 06:27:40;;;;;;;10.20;6.70;;;15.20;99.90;;;;;;5008741;28;20081;-77
2023/07/22 06:30:39;;;;;;;;;;;;;;;;;;;;;
2023/07/22 06:33:29;;;;;;;15.13;6.55;;;15.20;99.90;;;;;;5024575;28;20111;-77
2023/07/22 06:36:28;;;;;;;12.93;6.88;;;15.30;99.90;;;;;;5024954;28;20052;-77
2023/07/22 06:39:17;;;;;;;14.43;7.10;;;15.40;99.90;;;;;;5025385;28;20106;-77
2023/07/22 06:42:07;;;;;;;11.25;6.60;;;15.40;99.90;;;;;;5008981;28;20041;-78
2023/07/22 06:44:56;;;;;;;10.30;5.85;;;15.40;99.90;;;;;;5029913;28;20071;-78
2023/07/22 06:47:54;;;;;;;11.75;6.18;;;15.40;99.90;;;;;;5022357;28;20107;-78
2023/07/22 06:51:09;;;;;;;12.23;6.60;;;15.50;99.90;;;;;;4998618;28;20048;-77
2023/07/22 06:54:06;;;;;;;9.55;5.82;;;15.50;99.90;;;;;;5046211;28;20634;-78
2023/07/22 06:57:08;;;;;;;13.10;6.93;;;15.60;99.90;;;;;;5006090;28;20053;-77
2023/07/22 07:00:09;;;;;;;10.88;6.60;;;15.50;99.90;;;;;;5017332;28;20088;-77
2023/07/22 07:03:12;;;;;;;12.32;6.57;;;15.60;99.90;;;;;;5030909;28;20489;-77
2023/07/22 07:06:01;;;;;;;12.07;6.82;;;15.50;99.90;;;;;;5006433;28;20044;-78
2023/07/22 07:08:57;;;;;;;11.98;6.47;;;15.50;99.90;;;;;;4995668;28;20065;-78
2023/07/22 07:11:44;;;;;;;14.57;6.63;;;15.50;99.90;;;;;;5017746;28;20041;-77
2023/07/22 07:14:32;;;;;;;11.33;6.63;;;15.60;99.90;;;;;;5015875;28;20140;-77
2023/07/22 07:17:34;;;;;;;14.50;6.70;;;15.70;99.90;;;;;;5003438;28;20129;-77
2023/07/22 07:20:25;;;;;;;9.68;6.60;;;15.80;99.90;;;;;;5022380;28;20128;-77
2023/07/22 07:23:12;;;;;;;11.38;7.00;;;15.90;99.90;;;;;;5021956;28;20038;-77
2023/07/22 07:26:01;;;;;;;12.00;5.82;;;15.90;99.90;;;;;;4989340;28;20065;-77
2023/07/22 07:28:49;;;;;;;9.77;6.25;;;15.90;99.90;;;;;;5008043;28;20500;-77
2023/07/22 07:31:35;;;;;;;10.70;6.72;;;16.00;99.90;;;;;;5002809;28;20148;-75
2023/07/22 07:34:42;;;;;;;;;;;;;;;;;;;;;
2023/07/22 07:37:31;;;;;;;10.00;6.22;;;16.20;99.90;;;;;;5031425;28;20163;-75
2023/07/22 07:40:20;;;;;;;7.90;5.47;;;16.30;99.90;;;;;;5028023;28;20424;-75
2023/07/22 07:43:09;;;;;;;8.93;5.63;;;16.40;99.90;;;;;;5021448;28;20038;-75
2023/07/22 07:46:47;;;;;;;;;;;;;;;;;;;;;
2023/07/22 07:49:43;;;;;;;9.95;6.40;;;16.60;99.90;;;;;;5023379;28;20175;-75
2023/07/22 07:52:51;;;;;;;9.43;5.63;;;16.60;99.90;;;;;;5042889;28;20354;-74
2023/07/22 07:55:58;;;;;;;9.65;5.35;;;16.70;99.90;;;;;;5034122;28;20478;-74
2023/07/22 07:58:47;;;;;;;13.23;5.53;;;16.80;99.90;;;;;;5000637;28;20042;-75
2023/07/22 08:01:37;;;;;;;11.32;6.50;;;16.80;99.90;;;;;;5014426;28;20527;-75
2023/07/22 08:04:28;;;;;;;8.82;5.55;;;16.80;99.90;;;;;;5022801;28;20041;-74
2023/07/22 08:07:21;;;;;;;11.00;6.32;;;17.00;99.90;;;;;;5004048;28;20112;-74
2023/07/22 08:10:07;;;;;;;10.30;6.57;;;17.00;99.90;;;;;;5018970;28;20401;-75
2023/07/22 08:12:56;;;;;;;11.35;6.60;;;16.90;99.90;;;;;;5034466;28;20499;-72
2023/07/22 08:15:52;;;;;;;9.65;5.97;;;16.90;99.90;;;;;;5014129;28;20099;-72
2023/07/22 08:18:47;;;;;;;9.27;6.15;;;17.00;99.90;;;;;;5024368;28;21058;-72
2023/07/22 08:21:42;;;;;;;8.43;5.93;;;17.20;99.90;;;;;;5012060;28;20341;-73
2023/07/22 08:24:30;;;;;;;9.00;5.53;;;17.20;99.90;;;;;;4999079;28;20040;-72
2023/07/22 08:27:23;;;;;;;9.53;5.97;;;17.30;99.90;;;;;;4979421;28;20055;-72
2023/07/22 08:30:11;;;;;;;10.25;5.35;;;17.30;99.90;;;;;;5042364;28;20151;-72
2023/07/22 08:32:57;;;;;;;;;;;17.40;99.50;;;;;;5019449;28;20128;-72
2023/07/22 08:35:52;;;;;;;9.50;5.80;;;17.40;99.90;;;;;;5006653;28;19920;-73
2023/07/22 08:42:03;;;;;;;12.15;6.85;;;17.20;99.90;;;;;;4985329;28;20037;-72
2023/07/22 08:44:49;;;;;;;;;;;17.20;99.90;;;;;;5004606;28;20045;-72
2023/07/22 08:48:02;;;;;;;8.35;5.75;;;17.30;99.90;;;;;;5024454;28;19917;-72
2023/07/22 08:50:52;;;;;;;8.70;5.93;;;17.40;99.90;;;;;;4991828;28;20049;-72
2023/07/22 08:53:41;;;;;;;9.05;6.22;;;17.30;99.90;;;;;;5006559;28;20714;-72
2023/07/22 08:56:28;;;;;;;9.60;6.43;;;17.30;99.90;;;;;;5025886;28;20050;-72
2023/07/22 08:59:19;;;;;;;9.85;5.90;;;17.40;99.90;;;;;;4994287;28;20038;-72
2023/07/22 09:02:12;;;;;;;8.20;5.43;;;17.40;99.90;;;;;;4990194;28;20381;-73
2023/07/22 09:04:59;;;;;;;7.88;5.53;;;17.40;99.60;;;;;;5015064;28;20247;-72
2023/07/22 09:07:48;;;;;;;7.05;5.15;;;17.50;99.50;;;;;;5007625;28;20457;-72
2023/07/22 09:10:35;;;;;;;6.70;5.25;;;17.40;99.50;;;;;;5004678;28;20049;-72
2023/07/22 09:13:23;;;;;;;10.50;6.65;;;17.40;99.40;;;;;;5002187;28;20093;-72
2023/07/22 09:16:09;;;;;;;10.80;6.43;;;17.20;99.10;;;;;;4978683;28;20065;-72
2023/07/22 09:18:57;;;;;;;8.95;6.28;;;17.30;99.50;;;;;;4959939;28;20054;-72
2023/07/22 09:21:44;;;;;;;10.70;7.65;;;17.40;99.90;;;;;;4987130;28;20042;-72
2023/07/22 09:24:32;;;;;;;11.05;7.00;;;17.60;99.70;;;;;;4987950;28;20034;-72
2023/07/22 09:27:33;;;;;;;11.23;7.32;;;17.80;99.90;;;;;;5001822;28;20038;-73
2023/07/22 09:30:38;;;;;;;10.77;7.38;;;17.70;99.90;;;;;;4969215;28;20152;-72
2023/07/22 09:33:27;;;;;;;13.25;8.07;;;17.90;99.90;;;;;;5000359;28;20049;-72
2023/07/22 09:36:14;;;;;;;11.45;7.90;;;18.00;99.20;;;;;;4968344;28;20053;-73
2023/07/22 09:39:03;;;;;;;10.38;8.00;;;17.70;99.60;;;;;;4974124;28;20077;-72
2023/07/22 09:41:52;;;;;;;10.02;8.07;;;17.90;99.80;;;;;;4980361;28;20100;-73
2023/07/22 09:44:43;;;;;;;11.10;8.52;;;18.00;99.70;;;;;;5007314;28;20034;-73
2023/07/22 09:47:41;;;;;;;11.95;8.80;;;17.90;99.00;;;;;;4987923;28;20105;-73
2023/07/22 09:50:28;;;;;;;11.55;8.60;;;18.00;99.20;;;;;;4989692;28;20153;-72
2023/07/22 09:53:15;;;;;;;12.93;8.30;;;18.00;99.40;;;;;;4955960;28;20129;-73
2023/07/22 09:56:05;;;;;;;11.50;8.73;;;18.00;99.20;;;;;;4980686;28;20058;-72
2023/07/22 09:58:54;;;;;;;13.40;8.95;;;18.00;99.20;;;;;;4964220;28;20125;-76
2023/07/22 10:01:40;;;;;;;12.52;8.52;;;17.90;99.20;;;;;;4970425;28;20045;-76
2023/07/22 10:04:27;;;;;;;15.48;10.13;;;17.70;99.70;;;;;;4969090;28;20065;-76
2023/07/22 10:07:13;;;;;;;13.60;9.40;;;17.60;99.70;;;;;;4965257;28;20120;-75
2023/07/22 10:10:00;;;;;;;10.23;7.35;;;17.60;99.90;;;;;;4970893;28;20050;-75
2023/07/22 10:12:47;;;;;;;10.98;7.90;;;17.80;99.90;;;;;;4954120;28;20137;-76
2023/07/22 10:15:35;;;;;;;13.98;8.65;;;18.10;99.50;;;;;;4952703;28;20123;-75
2023/07/22 10:18:21;;;;;;;;;;;18.20;99.30;;;;;;4983382;28;20125;-76
2023/07/22 10:21:07;;;;;;;11.05;8.07;;;18.20;99.10;;;;;;4969976;28;20296;-75
2023/07/22 10:23:53;;;;;;;10.88;7.45;;;18.40;98.40;;;;;;4995665;28;20375;-75
2023/07/22 10:26:40;;;;;;;13.18;7.97;;;18.30;98.50;;;;;;4995083;28;20050;-76
2023/07/22 10:29:28;;;;;;;13.40;6.93;;;18.30;98.30;;;;;;4960904;28;20043;-76
2023/07/22 10:32:14;;;;;;;9.60;6.88;;;18.20;98.40;;;;;;4974788;28;20081;-75
2023/07/22 10:35:01;;;;;;;10.00;7.45;;;18.50;99.00;;;;;;4947841;28;20048;-76
2023/07/22 10:37:48;;;;;;;8.45;6.30;;;18.90;98.30;;;;;;4956210;28;20039;-76
2023/07/22 10:40:44;;;;;;;10.88;6.65;;;19.00;97.50;;;;;;4975862;28;20089;-76
2023/07/22 10:43:32;;;;;;;11.18;6.30;;;18.90;97.90;;;;;;4984589;28;20054;-75
2023/07/22 10:46:18;;;;;;;;;;;19.00;97.40;;;;;;4962541;28;20176;-76
2023/07/22 10:49:12;;;;;;;11.50;6.05;;;19.10;97.20;;;;;;4986816;28;19992;-75
2023/07/22 10:51:59;;;;;;;9.70;5.63;;;19.20;96.60;;;;;;4953803;28;20541;-75
2023/07/22 10:54:45;;;;;;;7.00;4.35;;;19.00;96.60;;;;;;4960780;28;20092;-73
2023/07/22 10:57:31;;;;;;;8.20;5.20;;;18.90;96.60;;;;;;4998750;28;20108;-73
2023/07/22 11:00:20;;;;;;;7.85;4.95;;;18.80;97.10;;;;;;4964824;28;20046;-73
2023/07/22 11:03:11;;;;;;;9.30;6.25;;;18.70;97.40;;;;;;4972767;28;20107;-73
2023/07/22 11:05:57;;;;;;;7.32;5.15;;;18.80;97.90;;;;;;4980400;28;20030;-73
2023/07/22 11:08:44;;;;;;;10.13;5.72;;;19.10;97.10;;;;;;4976837;28;20041;-73
2023/07/22 11:11:41;;;;;;;6.70;4.97;;;19.20;97.10;;;;;;4965666;28;20049;-73
2023/07/22 11:14:29;;;;;;;8.90;5.43;;;19.00;97.00;;;;;;4990185;28;20517;-73
2023/07/22 11:17:17;;;;;;;8.32;5.63;;;18.60;97.10;;;;;;4983964;28;20034;-72
2023/07/22 11:20:05;;;;;;;6.88;4.88;;;18.60;97.40;;;;;;4969089;28;20038;-71
2023/07/22 11:22:52;;;;;;;8.02;4.97;;;18.70;97.30;;;;;;4997031;28;20042;-72
2023/07/22 11:25:41;;;;;;;6.15;4.72;;;18.80;97.40;;;;;;4958456;28;20488;-72
2023/07/22 11:28:28;;;;;;;6.00;4.20;;;19.10;97.40;;;;;;4996874;28;20545;-73
2023/07/22 11:31:14;;;;;;;5.40;3.85;;;19.60;95.80;;;;;;4961223;28;20129;-72
2023/07/22 11:34:00;;;;;;;8.57;5.38;;;19.40;95.70;;;;;;4972514;28;20651;-75
2023/07/22 11:36:46;;;;;;;6.60;4.03;;;19.40;96.10;;;;;;4998887;28;20752;-72
2023/07/22 11:39:32;;;;;;;7.50;4.10;;;19.30;95.20;;;;;;4987160;28;20046;-72
2023/07/22 11:42:18;;;;;;;5.60;4.30;;;19.30;95.90;;;;;;4996965;28;20052;-72
2023/07/22 11:45:05;;;;;;;6.20;4.60;;;19.30;96.50;;;;;;4995999;28;20049;-71
2023/07/22 11:47:51;;;;;;;7.18;4.45;;;19.40;95.70;;;;;;4968523;28;20038;-71
2023/07/22 11:50:37;;;;;;;6.53;4.10;;;19.70;94.90;;;;;;4973790;28;20057;-71
2023/07/22 11:53:27;;;;;;;5.45;3.88;;;19.70;94.70;;;;;;4975436;28;20116;-71
2023/07/22 11:56:18;;;;;;;6.88;4.10;;;19.70;94.80;;;;;;4991031;28;20442;-71
2023/07/22 11:59:04;;;;;;;5.90;4.70;;;19.80;94.50;;;;;;4983268;28;20053;-72
2023/07/22 12:01:50;;;;;;;5.80;4.22;;;19.90;94.10;;;;;;4963691;28;20375;-75
2023/07/22 12:04:37;;;;;;;6.57;4.00;;;19.70;93.10;;;;;;4986833;28;20101;-75
2023/07/22 12:07:28;;;;;;;7.93;4.38;;;19.70;93.90;;;;;;4996611;28;20041;-75
2023/07/22 12:10:15;;;;;;;7.45;4.00;;;19.70;93.70;;;;;;4974788;28;20084;-73
2023/07/22 12:13:02;;;;;;;6.27;4.50;;;19.60;94.00;;;;;;4996312;28;20389;-73
2023/07/22 12:16:08;;;;;;;6.97;4.30;;;19.40;94.20;;;;;;4998132;28;20046;-73
2023/07/22 12:18:54;;;;;;;6.57;4.30;;;19.40;94.30;;;;;;5013737;28;20042;-73
2023/07/22 12:21:40;;;;;;;7.50;4.30;;;19.40;94.60;;;;;;5025566;28;20073;-73
2023/07/22 12:24:27;;;;;;;6.10;4.50;;;19.40;94.00;;;;;;5013577;28;20038;-73
2023/07/22 12:27:13;;;;;;;8.20;4.30;;;19.50;93.80;;;;;;5018667;28;20033;-73
2023/07/22 12:29:59;;;;;;;10.07;6.65;;;19.60;93.90;;;;;;5011777;28;20056;-73
2023/07/22 12:32:45;;;;;;;5.80;4.57;;;20.00;93.80;;;;;;4997718;28;20100;-76
2023/07/22 12:35:32;;;;;;;6.13;4.70;;;20.10;93.20;;;;;;4980468;28;20042;-76
2023/07/22 12:38:18;;;;;;;7.40;4.47;;;20.00;93.40;;;;;;4980163;28;20344;-75
2023/07/22 12:41:04;;;;;;;8.95;4.40;;;20.10;93.20;;;;;;4992937;28;20039;-76
2023/07/22 12:43:51;;;;;;;6.53;4.55;;;20.20;93.80;;;;;;4977074;28;20046;-76
2023/07/22 12:46:37;;;;;;;8.25;4.43;;;20.30;93.50;;;;;;4990496;28;20426;-74
2023/07/22 12:49:23;;;;;;;6.20;4.20;;;20.30;93.40;;;;;;4998124;28;20352;-75
2023/07/22 12:52:09;;;;;;;10.93;5.85;;;20.20;93.20;;;;;;4985890;28;20054;-75
2023/07/22 12:54:56;;;;;;;6.68;4.63;;;20.10;93.00;;;;;;5012713;28;20042;-76
2023/07/22 12:57:42;;;;;;;6.85;4.80;;;20.10;93.10;;;;;;5013799;28;20108;-75
2023/07/22 13:00:28;;;;;;;6.03;4.30;;;20.20;93.00;;;;;;5014642;28;20079;-75
2023/07/22 13:03:14;;;;;;;6.45;4.38;;;20.10;92.00;;;;;;5008963;28;20477;-75
2023/07/22 13:06:00;;;;;;;4.93;3.97;;;20.10;92.80;;;;;;5017972;28;20160;-75
2023/07/22 13:08:46;;;;;;;5.88;4.18;;;20.00;92.30;;;;;;5004381;28;20041;-75
2023/07/22 13:11:32;;;;;;;5.57;4.43;;;20.00;92.40;;;;;;4979528;28;20130;-74
2023/07/22 13:14:18;;;;;;;5.35;3.97;;;20.00;92.20;;;;;;4977583;28;20066;-76
2023/07/22 13:17:05;;;;;;;6.40;3.55;;;20.10;92.00;;;;;;4993170;28;20092;-76
2023/07/22 13:19:51;;;;;;;5.23;3.60;;;20.20;91.80;;;;;;4986405;28;20053;-75
2023/07/22 13:22:40;;;;;;;5.55;3.75;;;20.30;91.70;;;;;;4979450;28;20041;-75
2023/07/22 13:25:26;;;;;;;5.65;4.22;;;20.50;91.00;;;;;;4995658;28;20038;-75
2023/07/22 13:28:12;;;;;;;11.50;6.68;;;20.50;91.70;;;;;;4976752;28;20048;-75
2023/07/22 13:30:58;;;;;;;8.52;4.80;;;20.30;91.80;;;;;;5012626;28;20487;-75
2023/07/22 13:33:44;;;;;;;6.82;4.13;;;20.30;92.50;;;;;;4969163;28;20071;-75
2023/07/22 13:36:30;;;;;;;8.13;5.32;;;20.10;92.40;;;;;;5007698;28;20041;-75
2023/07/22 13:39:16;;;;;;;7.57;5.10;;;20.00;92.90;;;;;;5026521;28;20083;-75
2023/07/22 13:42:02;;;;;;;10.38;5.45;;;19.90;93.50;;;;;;4990956;28;20485;-75
2023/07/22 13:44:48;;;;;;;7.00;5.25;;;19.90;93.50;;;;;;5012082;28;20038;-75
2023/07/22 13:47:34;;;;;;;7.93;5.40;;;19.90;93.90;;;;;;4998219;28;20916;-76
2023/07/22 13:50:20;;;;;;;8.18;5.80;;;19.90;94.00;;;;;;5031239;28;20124;-75
2023/07/22 13:53:06;;;;;;;11.77;5.95;;;19.90;94.20;;;;;;5002958;28;20466;-75
2023/07/22 13:55:52;;;;;;;8.57;5.57;;;19.80;94.30;;;;;;4979066;28;20076;-76
2023/07/22 13:58:38;;;;;;;7.10;5.38;;;19.80;94.40;;;;;;5010047;28;20479;-76
2023/07/22 14:01:24;;;;;;;8.10;5.20;;;19.80;94.30;;;;;;5012531;28;20103;-76
2023/07/22 14:04:10;;;;;;;8.20;5.40;;;19.90;94.20;;;;;;4996767;28;20037;-76
2023/07/22 14:06:57;;;;;;;7.10;4.97;;;19.90;94.10;;;;;;5000170;28;20077;-76
2023/07/22 14:09:43;;;;;;;11.23;5.70;;;19.90;94.30;;;;;;5007181;28;20477;-77
2023/07/22 14:12:30;;;;;;;8.75;5.35;;;20.00;94.10;;;;;;5018581;28;20104;-76
2023/07/22 14:15:16;;;;;;;9.10;5.85;;;20.00;94.00;;;;;;4967152;28;20034;-76
2023/07/22 14:18:02;;;;;;;10.75;6.00;;;20.00;94.20;;;;;;5009278;28;20115;-75
2023/07/22 14:20:50;;;;;;;8.07;6.15;;;20.00;94.20;;;;;;5000553;28;20053;-75
2023/07/22 14:23:36;;;;;;;8.35;6.25;;;20.00;94.30;;;;;;4975136;28;20034;-78
2023/07/22 14:26:22;;;;;;;9.48;5.60;;;20.10;94.40;;;;;;5011185;28;20033;-76
2023/07/22 14:29:08;;;;;;;8.18;6.38;;;20.10;94.10;;;;;;4968842;28;20128;-77
2023/07/22 14:31:57;;;;;;;8.35;5.72;;;20.20;94.30;;;;;;4986110;28;20057;-77
2023/07/22 14:34:43;;;;;;;9.68;5.35;;;20.30;94.00;;;;;;4976334;28;20046;-76
2023/07/22 14:37:31;;;;;;;11.18;5.10;;;20.30;93.80;;;;;;4987059;28;20050;-76